sensor_id;sensor_type;location;lat;lon;timestamp;temperature;humidity
67893;DHT22;54688;52.376;16.744;2023-08-12T00:02:49;13.8;74.5
67893;DHT22;54688;52.376;16.744;2023-08-12T00:05:51;13.7;74.1
67893;DHT22;54688;52.376;16.744;2023-08-12T00:08:54;13.7;74.2
67893;DHT22;54688;52.376;16.744;2023-08-12T00:11:56;13.7;74.1
67893;DHT22;54688;52.376;16.744;2023-08-12T00:14:57;13.6;73.9
67893;DHT22;54688;52.376;16.744;2023-08-12T00:18:00;13.6;74.1
67893;DHT22;54688;52.376;16.744;2023-08-12T00:21:04;13.6;74.1
67893;DHT22;54688;52.376;16.744;2023-08-12T00:24:08;13.6;74.3
67893;DHT22;54688;52.376;16.744;2023-08-12T00:27:09;13.5;74.5
67893;DHT22;54688;52.376;16.744;2023-08-12T00:30:12;13.5;74.7
67893;DHT22;54688;52.376;16.744;2023-08-12T00:33:14;13.4;74.7
67893;DHT22;54688;52.376;16.744;2023-08-12T00:36:16;13.4;74.6
67893;DHT22;54688;52.376;16.744;2023-08-12T00:39:18;13.4;74.5
67893;DHT22;54688;52.376;16.744;2023-08-12T00:42:20;13.4;74.7
67893;DHT22;54688;52.376;16.744;2023-08-12T00:45:22;13.4;74.9
67893;DHT22;54688;52.376;16.744;2023-08-12T00:48:24;13.3;75.2
67893;DHT22;54688;52.376;16.744;2023-08-12T00:51:26;13.3;75.5
67893;DHT22;54688;52.376;16.744;2023-08-12T00:54:29;13.2;75.7
67893;DHT22;54688;52.376;16.744;2023-08-12T00:57:31;13.3;75.4
67893;DHT22;54688;52.376;16.744;2023-08-12T01:00:33;13.2;75.7
67893;DHT22;54688;52.376;16.744;2023-08-12T01:03:36;13.2;75.7
67893;DHT22;54688;52.376;16.744;2023-08-12T01:06:38;13.2;75.6
67893;DHT22;54688;52.376;16.744;2023-08-12T01:09:40;13.2;76.3
67893;DHT22;54688;52.376;16.744;2023-08-12T01:12:45;13.1;76.7
67893;DHT22;54688;52.376;16.744;2023-08-12T01:15:52;13.1;77.2
67893;DHT22;54688;52.376;16.744;2023-08-12T01:18:57;13.1;76.9
67893;DHT22;54688;52.376;16.744;2023-08-12T01:22:01;13.1;76.6
67893;DHT22;54688;52.376;16.744;2023-08-12T01:25:04;13.1;76.7
67893;DHT22;54688;52.376;16.744;2023-08-12T01:28:07;13;76.6
67893;DHT22;54688;52.376;16.744;2023-08-12T01:31:11;13;76.6
67893;DHT22;54688;52.376;16.744;2023-08-12T01:34:17;13;76.7
67893;DHT22;54688;52.376;16.744;2023-08-12T01:37:26;12.9;76.7
67893;DHT22;54688;52.376;16.744;2023-08-12T01:40:30;12.9;76.6
67893;DHT22;54688;52.376;16.744;2023-08-12T01:43:33;12.9;76.5
67893;DHT22;54688;52.376;16.744;2023-08-12T01:46:35;12.9;76.5
67893;DHT22;54688;52.376;16.744;2023-08-12T01:49:38;12.8;76.5
67893;DHT22;54688;52.376;16.744;2023-08-12T01:52:39;12.8;76.5
67893;DHT22;54688;52.376;16.744;2023-08-12T01:55:42;12.8;76.6
67893;DHT22;54688;52.376;16.744;2023-08-12T01:58:46;12.7;76.5
67893;DHT22;54688;52.376;16.744;2023-08-12T02:01:48;12.7;76.6
67893;DHT22;54688;52.376;16.744;2023-08-12T02:04:51;12.7;76.5
67893;DHT22;54688;52.376;16.744;2023-08-12T02:07:52;12.6;76.8
67893;DHT22;54688;52.376;16.744;2023-08-12T02:10:54;12.6;77.5
67893;DHT22;54688;52.376;16.744;2023-08-12T02:13:56;12.6;77.2
67893;DHT22;54688;52.376;16.744;2023-08-12T02:16:58;12.5;77.1
67893;DHT22;54688;52.376;16.744;2023-08-12T02:20:00;12.5;77.3
67893;DHT22;54688;52.376;16.744;2023-08-12T02:23:03;12.5;77.6
67893;DHT22;54688;52.376;16.744;2023-08-12T02:26:05;12.4;77.6
67893;DHT22;54688;52.376;16.744;2023-08-12T02:29:07;12.4;76.5
67893;DHT22;54688;52.376;16.744;2023-08-12T02:32:09;12.4;76.7
67893;DHT22;54688;52.376;16.744;2023-08-12T02:35:11;12.3;77
67893;DHT22;54688;52.376;16.744;2023-08-12T02:38:13;12.3;77.8
67893;DHT22;54688;52.376;16.744;2023-08-12T02:41:15;12.3;77.7
67893;DHT22;54688;52.376;16.744;2023-08-12T02:44:17;12.3;77.7
67893;DHT22;54688;52.376;16.744;2023-08-12T02:47:18;12.4;77.6
67893;DHT22;54688;52.376;16.744;2023-08-12T02:50:20;12.4;77.6
67893;DHT22;54688;52.376;16.744;2023-08-12T02:53:22;12.3;77.5
67893;DHT22;54688;52.376;16.744;2023-08-12T02:56:25;12.3;77.5
67893;DHT22;54688;52.376;16.744;2023-08-12T02:59:27;12.3;77.4
67893;DHT22;54688;52.376;16.744;2023-08-12T03:02:29;12.2;77.4
67893;DHT22;54688;52.376;16.744;2023-08-12T03:05:32;12.2;77.3
67893;DHT22;54688;52.376;16.744;2023-08-12T03:08:33;12.2;77.3
67893;DHT22;54688;52.376;16.744;2023-08-12T03:11:35;12.2;77.4
67893;DHT22;54688;52.376;16.744;2023-08-12T03:14:37;12.1;77.5
67893;DHT22;54688;52.376;16.744;2023-08-12T03:17:39;12.1;77.5
67893;DHT22;54688;52.376;16.744;2023-08-12T03:20:41;12.1;77.7
67893;DHT22;54688;52.376;16.744;2023-08-12T03:23:43;12;77.9
67893;DHT22;54688;52.376;16.744;2023-08-12T03:26:46;12;78.1
67893;DHT22;54688;52.376;16.744;2023-08-12T03:29:48;12;78.3
67893;DHT22;54688;52.376;16.744;2023-08-12T03:32:51;12;78.6
67893;DHT22;54688;52.376;16.744;2023-08-12T03:35:53;11.9;78.8
67893;DHT22;54688;52.376;16.744;2023-08-12T03:38:54;11.9;78.8
67893;DHT22;54688;52.376;16.744;2023-08-12T03:41:56;11.9;78.8
67893;DHT22;54688;52.376;16.744;2023-08-12T03:44:58;11.9;78.6
67893;DHT22;54688;52.376;16.744;2023-08-12T03:48:01;11.9;78.7
67893;DHT22;54688;52.376;16.744;2023-08-12T03:51:04;11.9;78.1
67893;DHT22;54688;52.376;16.744;2023-08-12T03:54:06;11.8;78.6
67893;DHT22;54688;52.376;16.744;2023-08-12T03:57:08;11.8;78.6
67893;DHT22;54688;52.376;16.744;2023-08-12T04:00:11;11.8;79.1
67893;DHT22;54688;52.376;16.744;2023-08-12T04:03:13;11.9;79.7
67893;DHT22;54688;52.376;16.744;2023-08-12T04:06:15;11.9;79.4
67893;DHT22;54688;52.376;16.744;2023-08-12T04:09:17;11.9;79.5
67893;DHT22;54688;52.376;16.744;2023-08-12T04:12:19;12;79
67893;DHT22;54688;52.376;16.744;2023-08-12T04:15:21;12;79.2
67893;DHT22;54688;52.376;16.744;2023-08-12T04:18:23;12;79.2
67893;DHT22;54688;52.376;16.744;2023-08-12T04:21:25;12;79.3
67893;DHT22;54688;52.376;16.744;2023-08-12T04:24:28;12;79.1
67893;DHT22;54688;52.376;16.744;2023-08-12T04:27:31;12;79.1
67893;DHT22;54688;52.376;16.744;2023-08-12T04:30:33;12;79
67893;DHT22;54688;52.376;16.744;2023-08-12T04:33:35;12;79
67893;DHT22;54688;52.376;16.744;2023-08-12T04:36:37;12;78.9
67893;DHT22;54688;52.376;16.744;2023-08-12T04:39:39;12;78.9
67893;DHT22;54688;52.376;16.744;2023-08-12T04:42:41;12;78.6
67893;DHT22;54688;52.376;16.744;2023-08-12T04:45:44;12.1;78.4
67893;DHT22;54688;52.376;16.744;2023-08-12T04:48:46;12;78.3
67893;DHT22;54688;52.376;16.744;2023-08-12T04:51:50;12.1;78.4
67893;DHT22;54688;52.376;16.744;2023-08-12T04:54:53;12.1;78.5
67893;DHT22;54688;52.376;16.744;2023-08-12T04:57:55;12.2;78.6
67893;DHT22;54688;52.376;16.744;2023-08-12T05:00:58;12.3;78.2
67893;DHT22;54688;52.376;16.744;2023-08-12T05:04:02;12.4;79.4
67893;DHT22;54688;52.376;16.744;2023-08-12T05:07:04;12.5;79.5
67893;DHT22;54688;52.376;16.744;2023-08-12T05:10:06;12.7;79.5
67893;DHT22;54688;52.376;16.744;2023-08-12T05:13:09;12.8;79.9
67893;DHT22;54688;52.376;16.744;2023-08-12T05:16:11;13;79.7
67893;DHT22;54688;52.376;16.744;2023-08-12T05:19:13;13.1;79.5
67893;DHT22;54688;52.376;16.744;2023-08-12T05:22:16;13.3;79.3
67893;DHT22;54688;52.376;16.744;2023-08-12T05:25:18;13.5;79.2
67893;DHT22;54688;52.376;16.744;2023-08-12T05:28:20;13.7;79.1
67893;DHT22;54688;52.376;16.744;2023-08-12T05:31:22;13.9;78.8
67893;DHT22;54688;52.376;16.744;2023-08-12T05:34:24;14.1;78.4
67893;DHT22;54688;52.376;16.744;2023-08-12T05:37:26;14.3;77.8
67893;DHT22;54688;52.376;16.744;2023-08-12T05:40:28;14.4;77.2
67893;DHT22;54688;52.376;16.744;2023-08-12T05:43:30;14.6;76.4
67893;DHT22;54688;52.376;16.744;2023-08-12T05:46:32;14.8;75.7
67893;DHT22;54688;52.376;16.744;2023-08-12T05:49:34;14.9;75.2
67893;DHT22;54688;52.376;16.744;2023-08-12T05:52:36;15;74.9
67893;DHT22;54688;52.376;16.744;2023-08-12T05:55:38;15.1;74.4
67893;DHT22;54688;52.376;16.744;2023-08-12T05:58:40;15.3;74
67893;DHT22;54688;52.376;16.744;2023-08-12T06:01:42;15.4;73.7
67893;DHT22;54688;52.376;16.744;2023-08-12T06:04:44;15.5;73.3
67893;DHT22;54688;52.376;16.744;2023-08-12T06:07:46;15.6;73
67893;DHT22;54688;52.376;16.744;2023-08-12T06:10:48;15.8;72.5
67893;DHT22;54688;52.376;16.744;2023-08-12T06:13:50;15.9;72.2
67893;DHT22;54688;52.376;16.744;2023-08-12T06:16:52;16;71.7
67893;DHT22;54688;52.376;16.744;2023-08-12T06:19:54;16.2;71.2
67893;DHT22;54688;52.376;16.744;2023-08-12T06:22:57;16.3;70.8
67893;DHT22;54688;52.376;16.744;2023-08-12T06:25:59;16.4;70.5
67893;DHT22;54688;52.376;16.744;2023-08-12T06:29:01;16.6;69.9
67893;DHT22;54688;52.376;16.744;2023-08-12T06:32:03;16.7;69.3
67893;DHT22;54688;52.376;16.744;2023-08-12T06:35:06;16.9;69
67893;DHT22;54688;52.376;16.744;2023-08-12T06:38:08;17;67.9
67893;DHT22;54688;52.376;16.744;2023-08-12T06:41:11;17.2;67.5
67893;DHT22;54688;52.376;16.744;2023-08-12T06:44:13;17.3;66.3
67893;DHT22;54688;52.376;16.744;2023-08-12T06:47:15;17.4;65.4
67893;DHT22;54688;52.376;16.744;2023-08-12T06:50:16;17.6;65
67893;DHT22;54688;52.376;16.744;2023-08-12T06:53:18;17.8;64.4
67893;DHT22;54688;52.376;16.744;2023-08-12T06:56:20;17.9;63.3
67893;DHT22;54688;52.376;16.744;2023-08-12T06:59:22;18.1;62.7
67893;DHT22;54688;52.376;16.744;2023-08-12T07:02:24;18.3;62.3
67893;DHT22;54688;52.376;16.744;2023-08-12T07:05:27;18.5;60.7
67893;DHT22;54688;52.376;16.744;2023-08-12T07:08:29;18.7;60.2
67893;DHT22;54688;52.376;16.744;2023-08-12T07:11:31;18.8;60.2
67893;DHT22;54688;52.376;16.744;2023-08-12T07:14:33;19;59.2
67893;DHT22;54688;52.376;16.744;2023-08-12T07:17:35;19.1;59
67893;DHT22;54688;52.376;16.744;2023-08-12T07:20:37;19.2;58.2
67893;DHT22;54688;52.376;16.744;2023-08-12T07:23:39;19.3;58.5
67893;DHT22;54688;52.376;16.744;2023-08-12T07:26:42;19.4;58.2
67893;DHT22;54688;52.376;16.744;2023-08-12T07:29:45;19.5;57.5
67893;DHT22;54688;52.376;16.744;2023-08-12T07:32:47;19.5;57.7
67893;DHT22;54688;52.376;16.744;2023-08-12T07:35:48;19.6;57.6
67893;DHT22;54688;52.376;16.744;2023-08-12T07:38:50;19.7;57.4
67893;DHT22;54688;52.376;16.744;2023-08-12T07:41:52;19.8;57
67893;DHT22;54688;52.376;16.744;2023-08-12T07:44:56;19.9;56.5
67893;DHT22;54688;52.376;16.744;2023-08-12T07:47:58;20.1;55.7
67893;DHT22;54688;52.376;16.744;2023-08-12T07:50:59;20.3;55.4
67893;DHT22;54688;52.376;16.744;2023-08-12T07:54:02;20.4;55.2
67893;DHT22;54688;52.376;16.744;2023-08-12T07:57:04;20.5;55
67893;DHT22;54688;52.376;16.744;2023-08-12T08:00:06;20.6;54.5
67893;DHT22;54688;52.376;16.744;2023-08-12T08:03:09;20.8;54.4
67893;DHT22;54688;52.376;16.744;2023-08-12T08:06:12;20.9;54.2
67893;DHT22;54688;52.376;16.744;2023-08-12T08:09:13;21;54.4
67893;DHT22;54688;52.376;16.744;2023-08-12T08:12:16;21.1;54.8
67893;DHT22;54688;52.376;16.744;2023-08-12T08:15:19;21.1;53.6
67893;DHT22;54688;52.376;16.744;2023-08-12T08:18:21;21.3;53.7
67893;DHT22;54688;52.376;16.744;2023-08-12T08:21:22;21.3;53.2
67893;DHT22;54688;52.376;16.744;2023-08-12T08:24:25;21.4;53.5
67893;DHT22;54688;52.376;16.744;2023-08-12T08:27:27;21.5;53.7
67893;DHT22;54688;52.376;16.744;2023-08-12T08:30:29;21.5;53.8
67893;DHT22;54688;52.376;16.744;2023-08-12T08:33:32;21.6;52.8
67893;DHT22;54688;52.376;16.744;2023-08-12T08:36:34;21.7;53.6
67893;DHT22;54688;52.376;16.744;2023-08-12T08:39:36;21.7;52.9
67893;DHT22;54688;52.376;16.744;2023-08-12T08:42:39;21.8;51.7
67893;DHT22;54688;52.376;16.744;2023-08-12T08:45:42;21.9;51.2
67893;DHT22;54688;52.376;16.744;2023-08-12T08:48:46;21.9;50.6
67893;DHT22;54688;52.376;16.744;2023-08-12T08:51:50;22;51.3
67893;DHT22;54688;52.376;16.744;2023-08-12T08:54:53;22.1;51.1
67893;DHT22;54688;52.376;16.744;2023-08-12T08:57:56;22.2;52.2
67893;DHT22;54688;52.376;16.744;2023-08-12T09:00:59;22.3;50.9
67893;DHT22;54688;52.376;16.744;2023-08-12T09:04:02;22.6;50.2
67893;DHT22;54688;52.376;16.744;2023-08-12T09:07:05;22.7;49.8
67893;DHT22;54688;52.376;16.744;2023-08-12T09:10:08;23;48.7
67893;DHT22;54688;52.376;16.744;2023-08-12T09:13:12;23.2;48.4
67893;DHT22;54688;52.376;16.744;2023-08-12T09:16:14;23.4;48
67893;DHT22;54688;52.376;16.744;2023-08-12T09:19:17;23.6;47.1
67893;DHT22;54688;52.376;16.744;2023-08-12T09:22:20;23.7;47.6
67893;DHT22;54688;52.376;16.744;2023-08-12T09:25:26;23.8;46.9
67893;DHT22;54688;52.376;16.744;2023-08-12T09:28:29;24;46.3
67893;DHT22;54688;52.376;16.744;2023-08-12T09:31:30;24;45.9
67893;DHT22;54688;52.376;16.744;2023-08-12T09:34:33;24;46.3
67893;DHT22;54688;52.376;16.744;2023-08-12T09:37:35;24.1;46.9
67893;DHT22;54688;52.376;16.744;2023-08-12T09:40:38;24.1;46.4
67893;DHT22;54688;52.376;16.744;2023-08-12T09:43:41;24.2;46.2
67893;DHT22;54688;52.376;16.744;2023-08-12T09:46:43;24.3;45.7
67893;DHT22;54688;52.376;16.744;2023-08-12T09:49:46;24.4;45
67893;DHT22;54688;52.376;16.744;2023-08-12T09:52:48;24.4;45.7
67893;DHT22;54688;52.376;16.744;2023-08-12T09:55:52;24.5;44.9
67893;DHT22;54688;52.376;16.744;2023-08-12T09:58:54;24.6;46.4
67893;DHT22;54688;52.376;16.744;2023-08-12T10:01:57;24.7;45
67893;DHT22;54688;52.376;16.744;2023-08-12T10:05:00;24.8;43.4
67893;DHT22;54688;52.376;16.744;2023-08-12T10:08:04;25;44.1
67893;DHT22;54688;52.376;16.744;2023-08-12T10:11:06;25.2;44.1
67893;DHT22;54688;52.376;16.744;2023-08-12T10:14:09;25.4;43.9
67893;DHT22;54688;52.376;16.744;2023-08-12T10:17:12;25.5;44.1
67893;DHT22;54688;52.376;16.744;2023-08-12T10:20:20;25.7;42.8
67893;DHT22;54688;52.376;16.744;2023-08-12T10:23:24;25.9;42.2
67893;DHT22;54688;52.376;16.744;2023-08-12T10:26:27;26.1;42.3
67893;DHT22;54688;52.376;16.744;2023-08-12T10:32:28;26.4;42.4
67893;DHT22;54688;52.376;16.744;2023-08-12T10:35:47;26.6;40.7
67893;DHT22;54688;52.376;16.744;2023-08-12T10:38:50;26.7;40.9
67893;DHT22;54688;52.376;16.744;2023-08-12T10:41:52;26.8;41.8
67893;DHT22;54688;52.376;16.744;2023-08-12T10:44:57;26.8;39.6
67893;DHT22;54688;52.376;16.744;2023-08-12T10:48:09;26.9;40.5
67893;DHT22;54688;52.376;16.744;2023-08-12T10:51:17;26.9;40.8
67893;DHT22;54688;52.376;16.744;2023-08-12T10:54:21;27;40.7
67893;DHT22;54688;52.376;16.744;2023-08-12T10:57:34;27.1;40.2
67893;DHT22;54688;52.376;16.744;2023-08-12T11:00:36;27.1;40.2
67893;DHT22;54688;52.376;16.744;2023-08-12T11:03:42;27.2;39.3
67893;DHT22;54688;52.376;16.744;2023-08-12T11:06:45;27.2;38.8
67893;DHT22;54688;52.376;16.744;2023-08-12T11:09:50;27.3;39
67893;DHT22;54688;52.376;16.744;2023-08-12T11:12:55;27.4;39
67893;DHT22;54688;52.376;16.744;2023-08-12T11:16:05;27.6;39.8
67893;DHT22;54688;52.376;16.744;2023-08-12T11:19:08;27.8;39.3
67893;DHT22;54688;52.376;16.744;2023-08-12T11:22:10;27.9;38.3
67893;DHT22;54688;52.376;16.744;2023-08-12T11:25:13;28.1;38.2
67893;DHT22;54688;52.376;16.744;2023-08-12T11:28:17;28.1;38.2
67893;DHT22;54688;52.376;16.744;2023-08-12T11:31:20;28.3;37.6
67893;DHT22;54688;52.376;16.744;2023-08-12T11:34:23;28.4;37.7
67893;DHT22;54688;52.376;16.744;2023-08-12T11:37:25;28.5;38
67893;DHT22;54688;52.376;16.744;2023-08-12T11:40:28;28.6;37.3
67893;DHT22;54688;52.376;16.744;2023-08-12T11:43:31;28.7;37.2
67893;DHT22;54688;52.376;16.744;2023-08-12T11:46:33;28.6;36.2
67893;DHT22;54688;52.376;16.744;2023-08-12T11:49:36;28.5;37.8
67893;DHT22;54688;52.376;16.744;2023-08-12T11:52:38;28.6;36.8
67893;DHT22;54688;52.376;16.744;2023-08-12T11:55:41;28.7;38.5
67893;DHT22;54688;52.376;16.744;2023-08-12T11:58:44;28.9;36.8
67893;DHT22;54688;52.376;16.744;2023-08-12T12:01:46;29;37
67893;DHT22;54688;52.376;16.744;2023-08-12T12:04:50;29.2;37.2
67893;DHT22;54688;52.376;16.744;2023-08-12T12:07:53;29.5;36.9
67893;DHT22;54688;52.376;16.744;2023-08-12T12:10:56;29.5;34.6
67893;DHT22;54688;52.376;16.744;2023-08-12T12:14:00;29.7;35.4
67893;DHT22;54688;52.376;16.744;2023-08-12T12:17:06;29.9;35.6
67893;DHT22;54688;52.376;16.744;2023-08-12T12:20:09;30.1;34.8
67893;DHT22;54688;52.376;16.744;2023-08-12T12:23:12;30.3;34.9
67893;DHT22;54688;52.376;16.744;2023-08-12T12:26:14;30.5;34.6
67893;DHT22;54688;52.376;16.744;2023-08-12T12:29:16;30.7;34.4
67893;DHT22;54688;52.376;16.744;2023-08-12T12:32:19;30.9;34.3
67893;DHT22;54688;52.376;16.744;2023-08-12T12:35:22;31;33.9
67893;DHT22;54688;52.376;16.744;2023-08-12T12:38:24;31.1;33.7
67893;DHT22;54688;52.376;16.744;2023-08-12T12:41:27;31.2;33.7
67893;DHT22;54688;52.376;16.744;2023-08-12T12:44:29;31.4;33.8
67893;DHT22;54688;52.376;16.744;2023-08-12T12:47:31;31.6;32.8
67893;DHT22;54688;52.376;16.744;2023-08-12T12:50:34;31.9;32.1
67893;DHT22;54688;52.376;16.744;2023-08-12T12:53:36;32.3;32.8
67893;DHT22;54688;52.376;16.744;2023-08-12T12:56:38;32.6;31.2
67893;DHT22;54688;52.376;16.744;2023-08-12T12:59:41;32.8;30.4
67893;DHT22;54688;52.376;16.744;2023-08-12T13:02:43;33.1;30.1
67893;DHT22;54688;52.376;16.744;2023-08-12T13:05:45;33.2;30
67893;DHT22;54688;52.376;16.744;2023-08-12T13:08:47;33.5;30.6
67893;DHT22;54688;52.376;16.744;2023-08-12T13:11:50;33.9;30
67893;DHT22;54688;52.376;16.744;2023-08-12T13:14:52;34.1;28.9
67893;DHT22;54688;52.376;16.744;2023-08-12T13:17:55;34.2;29.6
67893;DHT22;54688;52.376;16.744;2023-08-12T13:20:57;34.4;29.1
67893;DHT22;54688;52.376;16.744;2023-08-12T13:23:59;34.5;29
67893;DHT22;54688;52.376;16.744;2023-08-12T13:27:01;34.7;28.8
67893;DHT22;54688;52.376;16.744;2023-08-12T13:30:04;34.7;29
67893;DHT22;54688;52.376;16.744;2023-08-12T13:33:08;34.4;28.5
67893;DHT22;54688;52.376;16.744;2023-08-12T13:36:09;34.1;29.2
67893;DHT22;54688;52.376;16.744;2023-08-12T13:39:12;33.7;29.4
67893;DHT22;54688;52.376;16.744;2023-08-12T13:42:14;33.3;29.9
67893;DHT22;54688;52.376;16.744;2023-08-12T13:45:16;33;30.5
67893;DHT22;54688;52.376;16.744;2023-08-12T13:48:18;32.7;31
67893;DHT22;54688;52.376;16.744;2023-08-12T13:51:21;32.3;30.6
67893;DHT22;54688;52.376;16.744;2023-08-12T13:54:23;32.1;31.9
67893;DHT22;54688;52.376;16.744;2023-08-12T13:57:25;31.9;32.1
67893;DHT22;54688;52.376;16.744;2023-08-12T14:00:28;31.8;32.1
67893;DHT22;54688;52.376;16.744;2023-08-12T14:03:31;31.8;31.9
67893;DHT22;54688;52.376;16.744;2023-08-12T14:06:33;31.7;32.5
67893;DHT22;54688;52.376;16.744;2023-08-12T14:09:36;31.7;32.5
67893;DHT22;54688;52.376;16.744;2023-08-12T14:12:38;31.7;32.9
67893;DHT22;54688;52.376;16.744;2023-08-12T14:15:40;31.7;32.8
67893;DHT22;54688;52.376;16.744;2023-08-12T14:18:42;31.8;33
67893;DHT22;54688;52.376;16.744;2023-08-12T14:21:45;32;33
67893;DHT22;54688;52.376;16.744;2023-08-12T14:24:47;32.3;31.8
67893;DHT22;54688;52.376;16.744;2023-08-12T14:27:50;32.3;32.4
67893;DHT22;54688;52.376;16.744;2023-08-12T14:30:53;32.4;32.2
67893;DHT22;54688;52.376;16.744;2023-08-12T14:33:55;32.6;32.3
67893;DHT22;54688;52.376;16.744;2023-08-12T14:36:57;32.9;32
67893;DHT22;54688;52.376;16.744;2023-08-12T14:40:00;33.3;31
67893;DHT22;54688;52.376;16.744;2023-08-12T14:43:02;33.8;30.4
67893;DHT22;54688;52.376;16.744;2023-08-12T14:46:04;34.4;29.2
67893;DHT22;54688;52.376;16.744;2023-08-12T14:49:07;34.9;28.4
67893;DHT22;54688;52.376;16.744;2023-08-12T14:52:15;35.4;27.4
67893;DHT22;54688;52.376;16.744;2023-08-12T14:55:17;35.7;26.8
67893;DHT22;54688;52.376;16.744;2023-08-12T14:58:20;35.6;27.5
67893;DHT22;54688;52.376;16.744;2023-08-12T15:01:22;35.1;28
67893;DHT22;54688;52.376;16.744;2023-08-12T15:04:24;34.8;27.7
67893;DHT22;54688;52.376;16.744;2023-08-12T15:07:27;34.4;28.4
67893;DHT22;54688;52.376;16.744;2023-08-12T15:10:29;34.1;28.7
67893;DHT22;54688;52.376;16.744;2023-08-12T15:13:31;33.8;29.5
67893;DHT22;54688;52.376;16.744;2023-08-12T15:16:34;33.5;29.2
67893;DHT22;54688;52.376;16.744;2023-08-12T15:19:36;33.2;30.5
67893;DHT22;54688;52.376;16.744;2023-08-12T15:22:38;33;30.5
67893;DHT22;54688;52.376;16.744;2023-08-12T15:25:42;32.8;31.7
67893;DHT22;54688;52.376;16.744;2023-08-12T15:28:44;32.7;32.3
67893;DHT22;54688;52.376;16.744;2023-08-12T15:31:46;32.5;32.3
67893;DHT22;54688;52.376;16.744;2023-08-12T15:34:48;32.3;32.1
67893;DHT22;54688;52.376;16.744;2023-08-12T15:37:51;32.1;32.3
67893;DHT22;54688;52.376;16.744;2023-08-12T15:40:53;32;32.9
67893;DHT22;54688;52.376;16.744;2023-08-12T15:43:55;31.8;33.6
67893;DHT22;54688;52.376;16.744;2023-08-12T15:46:58;31.7;33.4
67893;DHT22;54688;52.376;16.744;2023-08-12T15:50:00;31.5;33.3
67893;DHT22;54688;52.376;16.744;2023-08-12T15:53:02;31.4;33.6
67893;DHT22;54688;52.376;16.744;2023-08-12T15:56:04;31.3;34.1
67893;DHT22;54688;52.376;16.744;2023-08-12T15:59:07;31.1;33.8
67893;DHT22;54688;52.376;16.744;2023-08-12T16:02:09;31;34.2
67893;DHT22;54688;52.376;16.744;2023-08-12T16:05:12;30.9;34.7
67893;DHT22;54688;52.376;16.744;2023-08-12T16:08:14;30.7;35.9
67893;DHT22;54688;52.376;16.744;2023-08-12T16:11:16;30.6;35.1
67893;DHT22;54688;52.376;16.744;2023-08-12T16:14:19;30.5;36
67893;DHT22;54688;52.376;16.744;2023-08-12T16:17:21;30.3;36
67893;DHT22;54688;52.376;16.744;2023-08-12T16:20:23;30.2;36
67893;DHT22;54688;52.376;16.744;2023-08-12T16:23:26;30.1;36.8
67893;DHT22;54688;52.376;16.744;2023-08-12T16:26:28;29.9;36.7
67893;DHT22;54688;52.376;16.744;2023-08-12T16:29:30;29.8;36.9
67893;DHT22;54688;52.376;16.744;2023-08-12T16:32:33;29.8;37.6
67893;DHT22;54688;52.376;16.744;2023-08-12T16:35:35;29.6;36.5
67893;DHT22;54688;52.376;16.744;2023-08-12T16:38:36;29.5;37.4
67893;DHT22;54688;52.376;16.744;2023-08-12T16:41:39;29.5;38.3
67893;DHT22;54688;52.376;16.744;2023-08-12T16:44:41;29.4;38.1
67893;DHT22;54688;52.376;16.744;2023-08-12T16:47:43;29.3;38.3
67893;DHT22;54688;52.376;16.744;2023-08-12T16:50:45;29.2;38.2
67893;DHT22;54688;52.376;16.744;2023-08-12T16:53:46;29.1;38.3
67893;DHT22;54688;52.376;16.744;2023-08-12T16:56:48;29;38.4
67893;DHT22;54688;52.376;16.744;2023-08-12T16:59:50;28.9;38.5
67893;DHT22;54688;52.376;16.744;2023-08-12T17:02:52;28.8;38.7
67893;DHT22;54688;52.376;16.744;2023-08-12T17:05:54;28.7;38.8
67893;DHT22;54688;52.376;16.744;2023-08-12T17:08:56;28.6;39.2
67893;DHT22;54688;52.376;16.744;2023-08-12T17:11:59;28.5;38.5
67893;DHT22;54688;52.376;16.744;2023-08-12T17:15:01;28.3;38.8
67893;DHT22;54688;52.376;16.744;2023-08-12T17:18:03;28.3;39.3
67893;DHT22;54688;52.376;16.744;2023-08-12T17:21:06;28.2;39.6
67893;DHT22;54688;52.376;16.744;2023-08-12T17:24:07;28.1;39.8
67893;DHT22;54688;52.376;16.744;2023-08-12T17:27:09;28;39.7
67893;DHT22;54688;52.376;16.744;2023-08-12T17:30:11;27.9;40.4
67893;DHT22;54688;52.376;16.744;2023-08-12T17:33:13;27.8;40.3
67893;DHT22;54688;52.376;16.744;2023-08-12T17:36:16;27.7;40.9
67893;DHT22;54688;52.376;16.744;2023-08-12T17:39:18;27.6;41.1
67893;DHT22;54688;52.376;16.744;2023-08-12T17:42:20;27.5;40.1
67893;DHT22;54688;52.376;16.744;2023-08-12T17:45:22;27.4;40.7
67893;DHT22;54688;52.376;16.744;2023-08-12T17:48:24;27.4;41
67893;DHT22;54688;52.376;16.744;2023-08-12T17:51:27;27.3;41.2
67893;DHT22;54688;52.376;16.744;2023-08-12T17:54:28;27.3;41.6
67893;DHT22;54688;52.376;16.744;2023-08-12T17:57:30;27.2;41.5
67893;DHT22;54688;52.376;16.744;2023-08-12T18:00:33;27.1;41.7
67893;DHT22;54688;52.376;16.744;2023-08-12T18:03:35;27.1;41.9
67893;DHT22;54688;52.376;16.744;2023-08-12T18:06:38;27;41.8
67893;DHT22;54688;52.376;16.744;2023-08-12T18:09:40;27;41.6
67893;DHT22;54688;52.376;16.744;2023-08-12T18:12:42;26.9;41.8
67893;DHT22;54688;52.376;16.744;2023-08-12T18:15:44;26.7;41.8
67893;DHT22;54688;52.376;16.744;2023-08-12T18:18:46;26.7;41.8
67893;DHT22;54688;52.376;16.744;2023-08-12T18:21:48;26.6;42.1
67893;DHT22;54688;52.376;16.744;2023-08-12T18:24:50;26.5;42.4
67893;DHT22;54688;52.376;16.744;2023-08-12T18:27:51;26.4;42.5
67893;DHT22;54688;52.376;16.744;2023-08-12T18:30:53;26.3;42.5
67893;DHT22;54688;52.376;16.744;2023-08-12T18:33:56;26.2;43
67893;DHT22;54688;52.376;16.744;2023-08-12T18:36:58;26.1;42.6
67893;DHT22;54688;52.376;16.744;2023-08-12T18:40:00;26.1;42.5
67893;DHT22;54688;52.376;16.744;2023-08-12T18:43:02;26;42.3
67893;DHT22;54688;52.376;16.744;2023-08-12T18:46:05;25.9;42.2
67893;DHT22;54688;52.376;16.744;2023-08-12T18:49:08;25.9;42.3
67893;DHT22;54688;52.376;16.744;2023-08-12T18:52:10;25.8;42.7
67893;DHT22;54688;52.376;16.744;2023-08-12T18:55:11;25.8;42.8
67893;DHT22;54688;52.376;16.744;2023-08-12T18:58:14;25.7;42.9
67893;DHT22;54688;52.376;16.744;2023-08-12T19:01:16;25.6;42.1
67893;DHT22;54688;52.376;16.744;2023-08-12T19:04:18;25.5;42.5
67893;DHT22;54688;52.376;16.744;2023-08-12T19:07:20;25.5;43.2
67893;DHT22;54688;52.376;16.744;2023-08-12T19:10:22;25.4;43.9
67893;DHT22;54688;52.376;16.744;2023-08-12T19:13:25;25.3;44
67893;DHT22;54688;52.376;16.744;2023-08-12T19:16:27;25.2;44.4
67893;DHT22;54688;52.376;16.744;2023-08-12T19:19:29;25.1;44.9
67893;DHT22;54688;52.376;16.744;2023-08-12T19:22:32;25;44.7
67893;DHT22;54688;52.376;16.744;2023-08-12T19:25:34;24.9;44.6
67893;DHT22;54688;52.376;16.744;2023-08-12T19:28:35;24.8;45.1
67893;DHT22;54688;52.376;16.744;2023-08-12T19:31:37;24.8;45.1
67893;DHT22;54688;52.376;16.744;2023-08-12T19:34:40;24.7;45.4
67893;DHT22;54688;52.376;16.744;2023-08-12T19:37:42;24.6;45.4
67893;DHT22;54688;52.376;16.744;2023-08-12T19:40:44;24.6;45.8
67893;DHT22;54688;52.376;16.744;2023-08-12T19:43:47;24.5;46.5